Terminal Aerodrome Forecast
Issued by NWS El Paso, TX

Home | Current Version | Previous Version | Text Only | Print | Product List | Glossary On
Versions: 1 2 3 4 5 6 7 8 9 10 11 12 13 14
000
FTUS44 KEPZ 022322
TAFELP
TAF
KELP 022322Z 0300/0324 12009KT P6SM SCT100 BKN250
     FM030200 13015G23KT P6SM VCTS SCT090CB SCT120 BKN250
      TEMPO 0303/0307 -TSRA BKN050CB
     FM030800 05009KT P6SM SCT100 BKN200
     FM031800 08010G16KT P6SM SCT080 BKN250=

USA.gov is the U.S. government's official web portal to all federal, state and local government web resources and services.